| time (UTC) | temp C | wind direction | speed KPH | gust KPH | rain 1hr cm | rain 24hr cm | rain mn cm | humidity % | barometer mb |
| 20260906230015 | 32 | 220 | 6.4 | 11.3 | 0.00 | 0.00 | 0.00 | 19 | 1003.6 |
| 20260906224513 | 33 | 223 | 4.8 | 14.5 | 0.00 | 0.00 | 0.00 | 17 | 1003.7 |
| 20260906223003 | 33 | 223 | 8.0 | 16.1 | 0.00 | 0.00 | 0.00 | 17 | 1003.9 |
| 20260906221601 | 32 | 222 | 4.8 | 14.5 | 0.00 | 0.00 | 0.00 | 20 | 1004.2 |
| 20260906221500 | 32 | 222 | 3.2 | 14.5 | 0.00 | 0.00 | 0.00 | 19 | 1004.2 |
| 20260906220059 | 32 | 211 | 6.4 | 11.3 | 0.00 | 0.00 | 0.00 | 20 | 1004.5 |
| 20260906214557 | 32 | 211 | 4.8 | 14.5 | 0.00 | 0.00 | 0.00 | 23 | 1004.8 |
| 20260906213059 | 32 | 188 | 6.4 | 12.9 | 0.00 | 0.00 | 0.00 | 20 | 1004.9 |
| 20260906211558 | 32 | 178 | 8.0 | 16.1 | 0.00 | 0.00 | 0.00 | 22 | 1005.0 |
| 20260906210053 | 31 | 105 | 3.2 | 9.7 | 0.00 | 0.00 | 0.00 | 26 | 1005.3 |
| 20260906204601 | 31 | 84 | 6.4 | 11.3 | 0.00 | 0.00 | 0.00 | 26 | 1005.6 |
| 20260906203042 | 30 | 86 | 0.0 | 8.0 | 0.00 | 0.00 | 0.00 | 29 | 1006.0 |
| 20260906201554 | 30 | 86 | 4.8 | 12.9 | 0.00 | 0.00 | 0.00 | 29 | 1006.3 |
| 20260906200036 | 29 | 89 | 3.2 | 6.4 | 0.00 | 0.00 | 0.00 | 34 | 1006.5 |
| 20260906194531 | 28 | 96 | 1.6 | 12.9 | 0.00 | 0.00 | 0.00 | 35 | 1006.8 |
| 20260906193027 | 28 | 96 | 0.0 | 16.1 | 0.00 | 0.00 | 0.00 | 35 | 1007.1 |
| 20260906191523 | 27 | 174 | 1.6 | 14.5 | 0.00 | 0.00 | 0.00 | 36 | 1007.5 |
| 20260906190019 | 26 | 310 | 3.2 | 8.0 | 0.00 | 0.00 | 0.00 | 38 | 1007.8 |
| 20260906184516 | 26 | 309 | 6.4 | 12.9 | 0.00 | 0.00 | 0.00 | 39 | 1008.4 |
| 20260906183013 | 26 | 272 | 3.2 | 6.4 | 0.00 | 0.00 | 0.00 | 40 | 1008.7 |
| 20260906181510 | 25 | 278 | 3.2 | 11.3 | 0.00 | 0.00 | 0.00 | 39 | 1009.2 |
| 20260906180005 | 25 | 279 | 3.2 | 9.7 | 0.00 | 0.00 | 0.00 | 42 | 1009.6 |
| 20260906174607 | 24 | 279 | 4.8 | 11.3 | 0.00 | 0.00 | 0.00 | 44 | 1009.9 |
| 20260906174501 | 24 | 279 | 6.4 | 11.3 | 0.00 | 0.00 | 0.00 | 44 | 1009.9 |
| 20260906173057 | 23 | 325 | 4.8 | 8.0 | 0.00 | 0.00 | 0.00 | 47 | 1010.2 |
| 20260906171554 | 23 | 325 | 3.2 | 8.0 | 0.00 | 0.00 | 0.00 | 48 | 1010.5 |
| 20260906170053 | 22 | 324 | 3.2 | 9.7 | 0.00 | 0.00 | 0.00 | 49 | 1010.7 |
| 20260906164550 | 22 | 325 | 3.2 | 9.7 | 0.00 | 0.00 | 0.00 | 50 | 1010.9 |
| 20260906163045 | 21 | 325 | 4.8 | 9.7 | 0.00 | 0.00 | 0.00 | 51 | 1011.2 |
| 20260906161546 | 21 | 325 | 3.2 | 9.7 | 0.00 | 0.00 | 0.00 | 51 | 1011.3 |
| 20260906160039 | 20 | 325 | 3.2 | 8.0 | 0.00 | 0.00 | 0.00 | 51 | 1011.5 |
| 20260906154543 | 19 | 325 | 4.8 | 6.4 | 0.00 | 0.00 | 0.00 | 53 | 1011.5 |
| 20260906153034 | 18 | 325 | 3.2 | 8.0 | 0.00 | 0.00 | 0.00 | 55 | 1011.5 |
| 20260906151526 | 17 | 326 | 4.8 | 8.0 | 0.00 | 0.00 | 0.00 | 56 | 1011.8 |
| 20260906150023 | 16 | 326 | 4.8 | 9.7 | 0.00 | 0.00 | 0.00 | 59 | 1011.9 |
| 20260906144523 | 15 | 327 | 4.8 | 9.7 | 0.00 | 0.00 | 0.00 | 61 | 1012.2 |
| 20260906143022 | 14 | 330 | 6.4 | 12.9 | 0.00 | 0.00 | 0.00 | 63 | 1012.4 |
| 20260906141522 | 13 | 5 | 4.8 | 8.0 | 0.00 | 0.00 | 0.00 | 64 | 1012.4 |
| 20260906140032 | 12 | 5 | 4.8 | 8.0 | 0.00 | 0.00 | 0.00 | 67 | 1012.6 |
| 20260906134519 | 11 | 5 | 1.6 | 4.8 | 0.00 | 0.00 | 0.00 | 70 | 1012.3 |
| 20260906133024 | 11 | 5 | 0.0 | 0.0 | 0.00 | 0.00 | 0.00 | 71 | 1012.2 |
| 20260906131517 | 11 | 5 | 1.6 | 4.8 | 0.00 | 0.00 | 0.00 | 71 | 1012.3 |
| 20260906130026 | 10 | 5 | 0.0 | 0.0 | 0.00 | 0.00 | 0.00 | 73 | 1012.3 |
| 20260906124514 | 10 | 5 | 1.6 | 4.8 | 0.00 | 0.00 | 0.00 | 73 | 1012.1 |
| 20260906123027 | 10 | 5 | 0.0 | 3.2 | 0.00 | 0.00 | 0.00 | 73 | 1012.0 |
| 20260906121512 | 10 | 5 | 3.2 | 6.4 | 0.00 | 0.00 | 0.00 | 72 | 1012.1 |
| 20260906120011 | 11 | 5 | 4.8 | 8.0 | 0.00 | 0.00 | 0.00 | 71 | 1012.0 |
| 20260906114511 | 11 | 5 | 3.2 | 6.4 | 0.00 | 0.00 | 0.00 | 71 | 1011.9 |
| 20260906113014 | 11 | 5 | 4.8 | 6.4 | 0.00 | 0.00 | 0.00 | 74 | 1011.9 |
| 20260906111506 | 10 | 5 | 1.6 | 4.8 | 0.00 | 0.00 | 0.00 | 74 | 1011.7 |
| 20260906110004 | 11 | 5 | 1.6 | 3.2 | 0.00 | 0.00 | 0.00 | 67 | 1011.7 |
| 20260906104600 | 11 | 5 | 0.0 | 0.0 | 0.00 | 0.00 | 0.00 | 74 | 1011.7 |
| 20260906103101 | 11 | 5 | 1.6 | 3.2 | 0.00 | 0.00 | 0.00 | 73 | 1011.5 |
| 20260906101557 | 11 | 5 | 0.0 | 0.0 | 0.00 | 0.00 | 0.00 | 73 | 1011.6 |
| 20260906100100 | 11 | 5 | 0.0 | 3.2 | 0.00 | 0.00 | 0.00 | 71 | 1011.3 |
| 20260906094553 | 11 | 5 | 0.0 | 3.2 | 0.00 | 0.00 | 0.00 | 71 | 1011.4 |
| 20260906093050 | 12 | 5 | 0.0 | 0.0 | 0.00 | 0.00 | 0.00 | 71 | 1011.2 |
| 20260906091548 | 12 | 5 | 0.0 | 0.0 | 0.00 | 0.00 | 0.00 | 71 | 1011.3 |
| 20260906090046 | 12 | 5 | 0.0 | 3.2 | 0.00 | 0.00 | 0.00 | 69 | 1011.2 |
| 20260906084543 | 13 | 5 | 0.0 | 0.0 | 0.00 | 0.00 | 0.00 | 68 | 1010.9 |
| 20260906083041 | 13 | 5 | 1.6 | 3.2 | 0.00 | 0.00 | 0.00 | 68 | 1010.8 |
| 20260906081539 | 13 | 5 | 0.0 | 0.0 | 0.00 | 0.00 | 0.00 | 68 | 1010.7 |
| 20260906080038 | 13 | 5 | 1.6 | 3.2 | 0.00 | 0.00 | 0.00 | 67 | 1010.8 |
| 20260906074538 | 13 | 5 | 0.0 | 3.2 | 0.00 | 0.00 | 0.00 | 66 | 1010.7 |
| 20260906073032 | 14 | 5 | 3.2 | 6.4 | 0.00 | 0.00 | 0.00 | 65 | 1010.7 |
| 20260906071531 | 14 | 5 | 3.2 | 6.4 | 0.00 | 0.00 | 0.00 | 65 | 1010.6 |
| 20260906070029 | 14 | 5 | 0.0 | 0.0 | 0.00 | 0.00 | 0.00 | 66 | 1010.5 |
| 20260906064526 | 15 | 5 | 0.0 | 3.2 | 0.00 | 0.00 | 0.00 | 65 | 1010.4 |
| 20260906063030 | 15 | 5 | 3.2 | 6.4 | 0.00 | 0.00 | 0.00 | 63 | 1010.3 |
| 20260906061521 | 16 | 5 | 1.6 | 3.2 | 0.00 | 0.00 | 0.00 | 63 | 1010.2 |
| 20260906060020 | 16 | 5 | 0.0 | 3.2 | 0.00 | 0.00 | 0.00 | 60 | 1010.2 |
| 20260906054513 | 17 | 5 | 4.8 | 6.4 | 0.00 | 0.00 | 0.00 | 59 | 1010.2 |
| 20260906053011 | 17 | 5 | 1.6 | 4.8 | 0.00 | 0.00 | 0.00 | 54 | 1010.0 |
| 20260906051508 | 17 | 5 | 0.0 | 3.2 | 0.00 | 0.00 | 0.00 | 51 | 1009.9 |
| 20260906050005 | 18 | 5 | 0.0 | 0.0 | 0.00 | 0.00 | 0.00 | 51 | 1009.9 |
| 20260906044603 | 19 | 5 | 1.6 | 4.8 | 0.00 | 0.00 | 0.00 | 49 | 1009.8 |
| 20260906043056 | 21 | 5 | 0.0 | 4.8 | 0.00 | 0.00 | 0.00 | 44 | 1009.7 |
| 20260906041553 | 21 | 5 | 3.2 | 9.7 | 0.00 | 0.00 | 0.00 | 41 | 1009.6 |
| 20260906040051 | 22 | 5 | 6.4 | 17.7 | 0.00 | 0.00 | 0.00 | 38 | 1009.8 |
| 20260906034550 | 22 | 346 | 8.0 | 12.9 | 0.00 | 0.00 | 0.00 | 39 | 1009.4 |
| 20260906033044 | 23 | 348 | 6.4 | 14.5 | 0.00 | 0.00 | 0.00 | 38 | 1008.9 |
| 20260906031603 | 23 | 360 | 6.4 | 14.5 | 0.00 | 0.00 | 0.00 | 37 | 1008.7 |
| 20260906030038 | 24 | 360 | 4.8 | 6.4 | 0.00 | 0.00 | 0.00 | 1008.7 |